createdAt,value
2022-12-14T00:01:23.149Z,38.50
2022-12-14T00:03:51.025Z,36.60
2022-12-14T00:06:20.351Z,32.88
2022-12-14T00:08:48.564Z,33.50
2022-12-14T00:11:15.352Z,32.25
2022-12-14T00:13:43.149Z,34.97
2022-12-14T00:18:39.533Z,31.42
2022-12-14T00:21:15.117Z,35.22
2022-12-14T00:23:44.141Z,35.63
2022-12-14T00:26:11.521Z,32.75
2022-12-14T00:28:38.825Z,31.88
2022-12-14T00:31:06.007Z,36.88
2022-12-14T00:33:33.186Z,31.38
2022-12-14T00:36:00.084Z,33.60
2022-12-14T00:38:27.233Z,32.88
2022-12-14T00:40:54.895Z,35.45
2022-12-14T00:43:22.746Z,30.40
2022-12-14T00:45:49.285Z,32.40
2022-12-14T00:48:17.517Z,31.35
2022-12-14T00:50:48.788Z,30.20
2022-12-14T00:53:16.448Z,31.85
2022-12-14T00:55:49.497Z,33.90
2022-12-14T00:58:19.707Z,34.38
2022-12-14T01:00:47.403Z,32.35
2022-12-14T01:05:41.197Z,31.45
2022-12-14T01:08:08.004Z,31.75
2022-12-14T01:10:34.860Z,33.40
2022-12-14T01:13:01.362Z,33.38
2022-12-14T01:15:27.791Z,36.58
2022-12-14T01:17:54.228Z,28.73
2022-12-14T01:20:20.660Z,28.73
2022-12-14T01:22:47.114Z,30.38
2022-12-14T01:25:13.470Z,31.88
2022-12-14T01:27:39.890Z,27.50
2022-12-14T01:30:06.908Z,30.25
2022-12-14T01:32:34.644Z,28.58
2022-12-14T01:37:28.710Z,26.77
2022-12-14T01:42:21.625Z,27.58
2022-12-14T01:44:57.134Z,26.85
2022-12-14T01:47:32.991Z,23.58
2022-12-14T01:50:11.070Z,30.25
2022-12-14T01:52:43.997Z,25.77
2022-12-14T01:55:22.565Z,23.52
2022-12-14T01:57:57.433Z,28.60
2022-12-14T02:00:24.464Z,26.02
2022-12-14T02:02:57.705Z,26.50
2022-12-14T02:05:25.649Z,25.85
2022-12-14T02:07:55.073Z,24.90
2022-12-14T02:10:26.294Z,24.58
2022-12-14T02:13:14.988Z,22.65
2022-12-14T02:15:42.245Z,23.75
2022-12-14T02:18:14.890Z,27.00
2022-12-14T02:21:09.476Z,26.38
2022-12-14T02:23:48.188Z,26.33
2022-12-14T02:26:39.053Z,26.20
2022-12-14T02:29:27.716Z,24.33
2022-12-14T02:32:22.193Z,25.35
2022-12-14T02:35:15.586Z,24.48
2022-12-14T02:38:20.107Z,25.08
2022-12-14T02:41:03.660Z,29.90
2022-12-14T02:43:33.196Z,28.10
2022-12-14T02:46:14.555Z,22.55
2022-12-14T02:48:50.868Z,25.33
2022-12-14T02:51:25.960Z,26.00
2022-12-14T02:54:04.082Z,22.88
2022-12-14T02:56:54.469Z,22.98
2022-12-14T02:59:24.007Z,23.63
2022-12-14T03:01:53.448Z,25.60
2022-12-14T03:04:20.556Z,25.92
2022-12-14T03:06:59.628Z,23.10
2022-12-14T03:09:29.769Z,23.40
2022-12-14T03:12:01.071Z,23.17
2022-12-14T03:14:33.246Z,21.73
2022-12-14T03:17:07.195Z,20.35
2022-12-14T03:19:49.121Z,27.20
2022-12-14T03:22:26.664Z,25.10
2022-12-14T03:24:58.441Z,26.70
2022-12-14T03:27:30.994Z,23.90
2022-12-14T03:30:44.306Z,28.17
2022-12-14T03:33:15.100Z,21.35
2022-12-14T03:35:54.508Z,26.50
2022-12-14T03:38:29.010Z,26.60
2022-12-14T03:41:18.444Z,26.27
2022-12-14T03:43:49.856Z,21.52
2022-12-14T03:46:53.702Z,23.83
2022-12-14T03:50:08.917Z,24.02
2022-12-14T03:53:03.038Z,25.73
2022-12-14T03:55:58.842Z,25.35
2022-12-14T03:58:57.137Z,26.70
2022-12-14T04:02:05.654Z,27.67
2022-12-14T04:04:38.787Z,23.73
2022-12-14T04:07:17.963Z,30.02
2022-12-14T04:09:53.002Z,22.50
2022-12-14T04:12:54.762Z,29.90
2022-12-14T04:15:47.990Z,24.88
2022-12-14T04:18:41.437Z,26.08
2022-12-14T04:21:14.101Z,24.10
2022-12-14T04:24:05.169Z,23.48
2022-12-14T04:26:45.618Z,26.05
2022-12-14T04:29:44.203Z,20.75
2022-12-14T04:32:25.112Z,24.02
2022-12-14T04:34:58.080Z,22.60
2022-12-14T04:37:28.069Z,28.13
2022-12-14T04:40:05.423Z,21.27
2022-12-14T04:42:35.988Z,26.97
2022-12-14T04:45:10.851Z,26.38
2022-12-14T04:47:44.454Z,23.45
2022-12-14T04:50:23.366Z,21.67
2022-12-14T04:52:55.953Z,24.95
2022-12-14T04:55:40.636Z,25.95
2022-12-14T04:58:22.537Z,26.02
2022-12-14T05:01:13.270Z,28.08
2022-12-14T05:03:58.789Z,28.00
2022-12-14T05:06:40.654Z,25.98
2022-12-14T05:09:12.920Z,23.00
2022-12-14T05:12:00.745Z,23.13
2022-12-14T05:14:50.947Z,24.40
2022-12-14T05:17:18.523Z,22.05
2022-12-14T05:19:48.492Z,25.73
2022-12-14T05:22:16.499Z,26.30
2022-12-14T05:24:43.103Z,26.30
2022-12-14T05:27:09.722Z,22.52
2022-12-14T05:29:36.263Z,25.98
2022-12-14T05:32:06.182Z,29.10
2022-12-14T05:34:32.998Z,27.25
2022-12-14T05:36:59.547Z,25.90
2022-12-14T05:39:26.220Z,24.58
2022-12-14T05:41:53.549Z,23.45
2022-12-14T05:44:20.302Z,25.67
2022-12-14T05:46:47.098Z,24.60
2022-12-14T05:49:13.721Z,23.77
2022-12-14T05:51:40.435Z,24.27
2022-12-14T05:54:07.101Z,21.73
2022-12-14T05:56:34.723Z,24.05
2022-12-14T05:59:02.528Z,26.30
2022-12-14T06:03:55.858Z,24.30
2022-12-14T06:06:22.853Z,22.67
2022-12-14T06:08:50.573Z,24.90
2022-12-14T06:13:48.231Z,22.63
2022-12-14T06:16:22.452Z,20.35
2022-12-14T06:18:54.306Z,24.00
2022-12-14T06:21:25.622Z,22.48
2022-12-14T06:23:53.126Z,25.30
2022-12-14T06:26:19.901Z,27.23
2022-12-14T06:28:46.454Z,22.88
2022-12-14T06:31:24.740Z,26.23
2022-12-14T06:36:24.486Z,26.08
2022-12-14T06:38:51.888Z,24.05
2022-12-14T06:41:19.458Z,23.88
2022-12-14T06:43:45.969Z,26.10
2022-12-14T06:46:19.443Z,26.05
2022-12-14T06:48:50.493Z,27.15
2022-12-14T06:51:17.375Z,24.88
2022-12-14T06:53:43.876Z,21.30
2022-12-14T06:56:12.108Z,27.13
2022-12-14T06:58:39.081Z,21.88
2022-12-14T07:01:08.600Z,24.08
2022-12-14T07:03:36.763Z,24.38
2022-12-14T07:06:04.948Z,23.67
2022-12-14T07:08:33.432Z,23.13
2022-12-14T07:11:08.924Z,25.05
2022-12-14T07:13:36.131Z,26.88
2022-12-14T07:16:04.780Z,20.75
2022-12-14T07:18:32.261Z,24.60
2022-12-14T07:21:00.690Z,23.70
2022-12-14T07:23:28.720Z,24.08
2022-12-14T07:26:02.437Z,22.27
2022-12-14T07:28:29.208Z,24.45
2022-12-14T07:30:56.752Z,27.00
2022-12-14T07:33:24.260Z,25.23
2022-12-14T07:38:27.371Z,24.63
2022-12-14T07:40:54.281Z,23.60
2022-12-14T07:43:28.245Z,24.85
2022-12-14T07:46:00.226Z,20.55
2022-12-14T07:48:27.530Z,24.23
2022-12-14T07:50:54.593Z,23.35
2022-12-14T07:53:21.228Z,24.30
2022-12-14T07:55:48.140Z,26.20
2022-12-14T07:58:14.846Z,27.23
2022-12-14T08:00:41.497Z,24.48
2022-12-14T08:03:08.087Z,26.23
2022-12-14T08:05:38.905Z,24.65
2022-12-14T08:08:05.567Z,26.85
2022-12-14T08:10:35.757Z,26.77
2022-12-14T08:13:06.785Z,25.63
2022-12-14T08:15:37.825Z,26.63
2022-12-14T08:18:04.404Z,34.17
2022-12-14T08:20:30.942Z,29.92
2022-12-14T08:22:57.433Z,22.30
2022-12-14T08:25:24.041Z,29.23
2022-12-14T08:27:50.641Z,24.30
2022-12-14T08:30:17.484Z,30.15
2022-12-14T08:32:46.768Z,32.30
2022-12-14T08:35:13.661Z,32.10
2022-12-14T08:37:45.765Z,28.48
2022-12-14T08:40:14.155Z,28.85
2022-12-14T08:42:41.611Z,23.00
2022-12-14T08:45:08.574Z,26.45
2022-12-14T08:47:35.135Z,24.92
2022-12-14T08:50:07.277Z,25.25
2022-12-14T08:52:34.803Z,24.50
2022-12-14T08:55:01.707Z,27.42
2022-12-14T08:57:28.251Z,23.92
2022-12-14T09:00:03.220Z,27.88
2022-12-14T09:02:36.273Z,28.60
2022-12-14T09:05:04.509Z,25.05
2022-12-14T09:07:31.739Z,23.88
2022-12-14T09:09:59.077Z,34.92
2022-12-14T09:12:26.165Z,22.95
2022-12-14T09:14:55.702Z,28.73
2022-12-14T09:17:22.452Z,23.38
2022-12-14T09:19:49.211Z,22.90
2022-12-14T09:22:15.859Z,29.93
2022-12-14T09:24:48.111Z,25.33
2022-12-14T09:27:14.693Z,23.88
2022-12-14T09:29:41.781Z,24.75
2022-12-14T09:32:10.552Z,26.80
2022-12-14T09:34:37.274Z,27.67
2022-12-14T09:37:04.806Z,21.17
2022-12-14T09:39:39.360Z,24.10
2022-12-14T09:42:08.858Z,22.92
2022-12-14T09:45:01.335Z,26.40
2022-12-14T09:47:47.105Z,31.95
2022-12-14T09:50:19.369Z,25.63
2022-12-14T09:53:01.685Z,23.00
2022-12-14T09:55:51.707Z,21.90
2022-12-14T09:58:29.654Z,30.00
2022-12-14T10:01:24.761Z,24.25
2022-12-14T10:04:27.325Z,26.45
2022-12-14T10:07:08.063Z,25.88
2022-12-14T10:09:57.737Z,25.80
2022-12-14T10:12:49.528Z,23.77
2022-12-14T10:15:27.324Z,23.88
2022-12-14T10:18:41.284Z,25.15
2022-12-14T10:21:14.146Z,20.13
2022-12-14T10:24:00.694Z,23.88
2022-12-14T10:26:38.397Z,19.05
2022-12-14T10:29:12.861Z,22.30
2022-12-14T10:31:48.129Z,21.00
2022-12-14T10:34:24.931Z,18.70
2022-12-14T10:37:26.183Z,24.10
2022-12-14T10:40:18.573Z,23.67
2022-12-14T10:43:23.247Z,19.45
2022-12-14T10:46:29.385Z,24.65
2022-12-14T10:49:02.789Z,23.63
2022-12-14T10:51:47.082Z,22.38
2022-12-14T10:54:37.295Z,19.98
2022-12-14T10:57:04.615Z,23.00
2022-12-14T10:59:39.768Z,23.33
2022-12-14T11:02:19.418Z,24.77
2022-12-14T11:04:55.645Z,21.63
2022-12-14T11:07:33.186Z,22.55
2022-12-14T11:10:21.689Z,21.80
2022-12-14T11:13:17.476Z,22.70
2022-12-14T11:15:52.555Z,24.63
2022-12-14T11:18:31.141Z,18.08
2022-12-14T11:21:07.963Z,21.17
2022-12-14T11:23:46.023Z,20.80
2022-12-14T11:26:28.336Z,19.00
2022-12-14T11:29:04.440Z,19.00
2022-12-14T11:31:48.124Z,18.02
2022-12-14T11:34:30.015Z,16.02
2022-12-14T11:37:21.166Z,16.73
2022-12-14T11:40:03.771Z,16.48
2022-12-14T11:42:33.523Z,19.88
2022-12-14T11:47:42.865Z,18.98
2022-12-14T11:50:25.177Z,18.45
2022-12-14T11:52:51.841Z,17.60
2022-12-14T11:55:26.760Z,15.57
2022-12-14T11:58:00.076Z,16.00
2022-12-14T12:00:29.037Z,15.82
2022-12-14T12:03:02.420Z,21.85
2022-12-14T12:05:32.544Z,16.02
2022-12-14T12:08:00.747Z,18.60
2022-12-14T12:10:45.067Z,18.50
2022-12-14T12:13:35.011Z,15.48
2022-12-14T12:16:17.122Z,15.27
2022-12-14T12:18:59.387Z,15.75
2022-12-14T12:21:31.175Z,15.52
2022-12-14T12:24:04.898Z,16.90
2022-12-14T12:26:34.249Z,16.85
2022-12-14T12:29:03.848Z,32.25
2022-12-14T12:31:35.760Z,16.50
2022-12-14T12:34:10.209Z,14.60
2022-12-14T12:36:37.932Z,16.85
2022-12-14T12:39:10.424Z,15.55
2022-12-14T12:42:04.956Z,15.35
2022-12-14T12:44:51.109Z,17.88
2022-12-14T12:47:38.444Z,15.55
2022-12-14T12:50:28.241Z,15.38
2022-12-14T12:53:16.967Z,16.35
2022-12-14T12:55:48.978Z,15.85
2022-12-14T12:58:29.401Z,16.48
2022-12-14T13:01:02.176Z,14.05
2022-12-14T13:03:38.902Z,12.30
2022-12-14T13:06:18.774Z,15.68
2022-12-14T13:08:47.918Z,15.55
2022-12-14T13:11:26.778Z,18.23
2022-12-14T13:14:14.215Z,15.88
2022-12-14T13:16:42.237Z,17.95
2022-12-14T13:19:50.340Z,14.32
2022-12-14T13:22:24.684Z,18.88
2022-12-14T13:24:58.866Z,16.58
2022-12-14T13:27:38.336Z,18.02
2022-12-14T13:30:32.681Z,17.45
2022-12-14T13:33:13.027Z,23.33
2022-12-14T13:36:01.287Z,15.15
2022-12-14T13:38:48.689Z,18.27
2022-12-14T13:41:40.106Z,18.90
2022-12-14T13:44:24.962Z,22.10
2022-12-14T13:47:06.063Z,17.38
2022-12-14T13:49:33.544Z,16.55
2022-12-14T13:54:37.065Z,23.70
2022-12-14T13:57:21.535Z,18.52
2022-12-14T13:59:54.460Z,17.70
2022-12-14T14:02:30.166Z,17.15
2022-12-14T14:05:22.660Z,15.35
2022-12-14T14:07:54.385Z,23.27
2022-12-14T14:10:33.325Z,21.70
2022-12-14T14:13:01.968Z,18.25
2022-12-14T14:15:32.767Z,20.30
2022-12-14T14:18:12.314Z,19.80
2022-12-14T14:20:38.665Z,17.92
2022-12-14T14:23:14.345Z,18.65
2022-12-14T14:25:49.065Z,21.85
2022-12-14T14:28:22.732Z,20.05
2022-12-14T14:30:53.524Z,40.83
2022-12-14T14:33:45.535Z,21.02
2022-12-14T14:36:15.892Z,22.42
2022-12-14T14:38:43.239Z,21.77
2022-12-14T14:41:22.524Z,22.20
2022-12-14T14:43:56.769Z,25.40
2022-12-14T14:46:35.405Z,25.27
2022-12-14T14:49:02.399Z,27.00
2022-12-14T14:51:32.644Z,24.58
2022-12-14T14:54:53.960Z,23.67
2022-12-14T14:57:54.606Z,21.90
2022-12-14T15:00:22.842Z,38.15
2022-12-14T15:02:51.849Z,51.33
2022-12-14T15:08:37.203Z,26.40
2022-12-14T15:11:11.496Z,27.27
2022-12-14T15:13:57.533Z,31.23
2022-12-14T15:16:33.718Z,28.95
2022-12-14T15:19:20.745Z,30.58
2022-12-14T15:21:50.598Z,31.67
2022-12-14T15:24:17.196Z,33.72
2022-12-14T15:26:43.638Z,32.00
2022-12-14T15:29:18.531Z,39.22
2022-12-14T15:31:45.872Z,28.50
2022-12-14T15:34:17.142Z,32.92
2022-12-14T15:36:44.516Z,35.17
2022-12-14T15:39:29.735Z,36.75
2022-12-14T15:42:11.508Z,37.58
2022-12-14T15:44:43.720Z,37.42
2022-12-14T15:47:23.142Z,35.85
2022-12-14T15:49:53.354Z,43.95
2022-12-14T15:52:30.104Z,37.85
2022-12-14T15:54:58.898Z,44.53
2022-12-14T15:57:25.601Z,45.33
2022-12-14T15:59:56.333Z,45.43
2022-12-14T16:02:29.362Z,42.30
2022-12-14T16:04:58.299Z,39.75
2022-12-14T16:07:36.674Z,37.53
2022-12-14T16:12:45.819Z,34.65
2022-12-14T16:15:27.992Z,34.38
2022-12-14T16:18:02.012Z,32.03
2022-12-14T16:20:35.973Z,31.48
2022-12-14T16:23:14.712Z,29.38
2022-12-14T16:26:00.762Z,28.48
2022-12-14T16:28:29.429Z,27.45
2022-12-14T16:31:06.451Z,31.15
2022-12-14T16:33:35.042Z,27.50
2022-12-14T16:36:07.882Z,25.05
2022-12-14T16:38:54.850Z,25.70
2022-12-14T16:41:37.470Z,25.77
2022-12-14T16:44:07.293Z,23.98
2022-12-14T16:46:33.940Z,24.95
2022-12-14T16:49:20.741Z,24.50
2022-12-14T16:52:12.691Z,30.75
2022-12-14T16:54:39.311Z,29.77
2022-12-14T16:57:20.889Z,34.83
2022-12-14T16:59:55.895Z,27.90
2022-12-14T17:02:38.051Z,35.65
2022-12-14T17:05:28.322Z,32.80
2022-12-14T17:07:54.721Z,34.63
2022-12-14T17:10:24.019Z,37.10
2022-12-14T17:12:52.061Z,43.78
2022-12-14T17:15:21.620Z,40.33
2022-12-14T17:17:50.881Z,29.92
2022-12-14T17:20:36.809Z,37.92
2022-12-14T17:23:04.446Z,25.50
2022-12-14T17:25:32.446Z,26.70
2022-12-14T17:28:00.081Z,26.30
2022-12-14T17:32:55.664Z,25.63
2022-12-14T17:35:25.923Z,25.48
2022-12-14T17:37:52.433Z,26.67
2022-12-14T17:40:18.939Z,34.25
2022-12-14T17:42:54.764Z,37.17
2022-12-14T17:45:24.816Z,33.85
2022-12-14T17:47:51.558Z,35.70
2022-12-14T17:50:19.686Z,31.98
2022-12-14T17:52:48.091Z,42.80
2022-12-14T17:55:20.339Z,36.47
2022-12-14T17:57:48.401Z,39.30
2022-12-14T18:00:36.346Z,38.10
2022-12-14T18:03:04.147Z,38.63
2022-12-14T18:05:31.797Z,42.35
2022-12-14T18:07:58.624Z,44.30
2022-12-14T18:10:25.854Z,41.10
2022-12-14T18:12:52.811Z,44.35
2022-12-14T18:15:26.951Z,49.30
2022-12-14T18:17:53.755Z,45.50
2022-12-14T18:20:22.901Z,51.37
2022-12-14T18:22:50.444Z,42.13
2022-12-14T18:25:34.013Z,43.28
2022-12-14T18:28:03.158Z,47.30
2022-12-14T18:30:39.469Z,44.95
2022-12-14T18:33:16.715Z,67.78
2022-12-14T18:35:44.791Z,81.90
2022-12-14T18:38:11.711Z,107.18
2022-12-14T18:40:39.143Z,101.63
2022-12-14T18:43:05.704Z,114.22
2022-12-14T18:45:34.188Z,126.10
2022-12-14T18:48:01.973Z,106.93
2022-12-14T18:50:29.737Z,109.72
2022-12-14T18:52:56.779Z,100.13
2022-12-14T18:55:26.441Z,107.85
2022-12-14T18:57:55.714Z,114.18
2022-12-14T19:00:25.246Z,105.38
2022-12-14T19:02:52.927Z,95.47
2022-12-14T19:05:25.582Z,96.80
2022-12-14T19:07:52.663Z,89.00
2022-12-14T19:10:22.811Z,99.45
2022-12-14T19:12:50.342Z,95.00
2022-12-14T19:15:22.838Z,100.65
2022-12-14T19:17:49.804Z,94.63
2022-12-14T19:20:17.383Z,88.15
2022-12-14T19:22:44.924Z,79.78
2022-12-14T19:25:12.229Z,75.20
2022-12-14T19:28:19.964Z,67.75
2022-12-14T19:30:27.138Z,54.60
2022-12-14T19:32:55.811Z,40.00
2022-12-14T19:35:24.046Z,37.80
2022-12-14T19:37:51.759Z,44.42
2022-12-14T19:42:46.448Z,39.85
2022-12-14T19:45:14.333Z,34.42
2022-12-14T19:47:41.154Z,33.42
2022-12-14T19:50:07.998Z,31.90
2022-12-14T19:52:34.770Z,35.90
2022-12-14T19:55:02.281Z,34.67
2022-12-14T19:57:28.786Z,39.28
2022-12-14T19:59:57.023Z,36.85
2022-12-14T20:02:23.798Z,44.95
2022-12-14T20:04:50.444Z,47.40
2022-12-14T20:07:16.959Z,39.63
2022-12-14T20:09:43.558Z,45.47
2022-12-14T20:12:11.339Z,42.00
2022-12-14T20:14:42.530Z,36.55
2022-12-14T20:17:10.817Z,41.10
2022-12-14T20:19:39.181Z,48.88
2022-12-14T20:22:06.868Z,42.00
2022-12-14T20:26:59.981Z,36.97
2022-12-14T20:29:27.634Z,33.70
2022-12-14T20:34:22.015Z,40.00
2022-12-14T20:36:48.552Z,39.85
2022-12-14T20:39:15.076Z,35.90
2022-12-14T20:41:42.064Z,36.58
2022-12-14T20:44:11.886Z,38.28
2022-12-14T20:46:40.606Z,38.95
2022-12-14T20:49:10.752Z,32.78
2022-12-14T20:51:38.602Z,34.90
2022-12-14T20:54:07.799Z,37.53
2022-12-14T20:56:35.183Z,38.10
2022-12-14T20:59:01.851Z,38.03
2022-12-14T21:01:28.500Z,44.78
2022-12-14T21:03:57.543Z,35.72
2022-12-14T21:06:24.124Z,31.45
2022-12-14T21:09:06.391Z,36.38
2022-12-14T21:12:02.972Z,46.85
2022-12-14T21:14:34.866Z,47.72
2022-12-14T21:17:02.073Z,45.03
2022-12-14T21:19:28.820Z,41.60
2022-12-14T21:21:55.334Z,41.58
2022-12-14T21:27:15.939Z,49.33
2022-12-14T21:29:42.410Z,46.20
2022-12-14T21:32:08.977Z,39.08
2022-12-14T21:34:35.550Z,39.15
2022-12-14T21:37:02.296Z,40.97
2022-12-14T21:39:28.721Z,48.07
2022-12-14T21:42:13.993Z,39.30
2022-12-14T21:44:42.715Z,44.97
2022-12-14T21:47:14.975Z,53.75
2022-12-14T21:49:42.917Z,51.00
2022-12-14T21:52:12.718Z,51.90
2022-12-14T21:54:40.083Z,51.47
2022-12-14T21:57:25.180Z,47.85
2022-12-14T21:59:51.779Z,45.40
2022-12-14T22:02:21.482Z,44.80
2022-12-14T22:04:48.621Z,48.03
2022-12-14T22:07:19.463Z,44.13
2022-12-14T22:09:49.497Z,38.35
2022-12-14T22:12:17.234Z,39.28
2022-12-14T22:14:43.730Z,37.63
2022-12-14T22:17:12.651Z,36.95
2022-12-14T22:19:39.190Z,34.50
2022-12-14T22:22:05.733Z,31.77
2022-12-14T22:24:32.633Z,29.88
2022-12-14T22:26:59.455Z,35.78
2022-12-14T22:29:26.432Z,30.17
2022-12-14T22:31:53.105Z,31.73
2022-12-14T22:34:22.760Z,34.27
2022-12-14T22:36:51.129Z,36.38
2022-12-14T22:39:18.521Z,30.25
2022-12-14T22:41:45.783Z,33.80
2022-12-14T22:44:12.934Z,33.88
2022-12-14T22:46:40.263Z,39.17
2022-12-14T22:49:07.080Z,34.28
2022-12-14T22:51:33.539Z,32.73
2022-12-14T22:54:00.039Z,32.53
2022-12-14T22:56:33.129Z,33.63
2022-12-14T22:59:02.423Z,35.63
2022-12-14T23:01:29.654Z,42.25
2022-12-14T23:03:56.796Z,38.95
2022-12-14T23:06:23.369Z,37.63
2022-12-14T23:09:08.303Z,31.80
2022-12-14T23:11:53.518Z,33.50
2022-12-14T23:14:39.387Z,32.20
2022-12-14T23:17:25.294Z,36.60
2022-12-14T23:20:10.788Z,33.05
2022-12-14T23:22:56.823Z,35.88
2022-12-14T23:25:41.661Z,33.42
2022-12-14T23:28:27.039Z,39.15
2022-12-14T23:31:15.542Z,31.65
2022-12-14T23:34:00.842Z,35.47
2022-12-14T23:36:46.195Z,38.20
2022-12-14T23:39:30.973Z,44.65
2022-12-14T23:42:15.950Z,54.33
2022-12-14T23:45:00.767Z,40.50
2022-12-14T23:47:46.129Z,47.13
2022-12-14T23:50:34.982Z,43.17
2022-12-14T23:53:24.516Z,45.13
2022-12-14T23:56:09.276Z,39.70
2022-12-14T23:58:54.403Z,35.90
